createdAt,value
2023-04-15T00:40:26.301Z,63.53
2023-04-15T00:46:07.599Z,63.47
2023-04-15T00:51:50.455Z,63.26
2023-04-15T00:57:33.684Z,63.50
2023-04-15T01:03:16.382Z,63.32
2023-04-15T01:09:00.017Z,63.89
2023-04-15T01:14:43.013Z,63.67
2023-04-15T01:20:26.175Z,63.61
2023-04-15T01:26:09.561Z,63.70
2023-04-15T01:31:53.861Z,64.19
2023-04-15T01:37:36.960Z,64.17
2023-04-15T01:43:23.952Z,64.05
2023-04-15T01:48:30.283Z,64.00
2023-04-15T01:58:38.118Z,64.00
2023-04-15T02:09:11.191Z,64.36
2023-04-15T02:17:09.213Z,64.50
2023-04-15T02:27:49.411Z,63.87
2023-04-15T02:32:52.408Z,61.99
2023-04-15T02:37:54.771Z,59.41
2023-04-15T02:42:56.908Z,56.56
2023-04-15T02:48:01.526Z,55.20
2023-04-15T02:53:04.417Z,53.94
2023-04-15T02:58:07.176Z,52.97
2023-04-15T03:03:10.957Z,52.34
2023-04-15T03:08:13.070Z,51.82
2023-04-15T03:13:14.995Z,49.12
2023-04-15T03:18:18.016Z,49.54
2023-04-15T03:23:20.116Z,52.01
2023-04-15T03:28:23.577Z,52.45
2023-04-15T03:33:26.608Z,52.71
2023-04-15T03:38:28.857Z,52.46
2023-04-15T03:43:30.912Z,50.58
2023-04-15T03:48:33.000Z,51.65
2023-04-15T03:53:35.007Z,49.82
2023-04-15T03:58:37.096Z,51.66
2023-04-15T04:04:04.997Z,51.39
2023-04-15T04:09:25.951Z,51.40
2023-04-15T04:14:29.853Z,50.97
2023-04-15T04:19:32.093Z,51.46
2023-04-15T04:24:34.011Z,49.94
2023-04-15T04:29:36.181Z,51.23
2023-04-15T04:34:38.596Z,51.09
2023-04-15T04:39:41.860Z,51.13
2023-04-15T04:44:44.294Z,50.99
2023-04-15T04:49:46.511Z,51.14
2023-04-15T04:54:48.518Z,49.70
2023-04-15T04:59:51.301Z,50.84
2023-04-15T05:04:54.753Z,50.97
2023-04-15T05:09:56.878Z,50.74
2023-04-15T05:14:58.855Z,49.87
2023-04-15T05:20:02.094Z,50.83
2023-04-15T05:25:04.488Z,50.79
2023-04-15T05:30:07.451Z,50.79
2023-04-15T05:35:09.851Z,50.85
2023-04-15T05:40:13.237Z,50.65
2023-04-15T05:45:19.655Z,50.69
2023-04-15T05:50:21.806Z,50.90
2023-04-15T05:55:23.689Z,49.99
2023-04-15T06:00:26.143Z,50.68
2023-04-15T06:05:28.348Z,50.72
2023-04-15T06:10:30.986Z,55.61
2023-04-15T06:15:32.884Z,50.19
2023-04-15T06:20:36.982Z,51.02
2023-04-15T06:25:39.004Z,50.72
2023-04-15T06:30:41.202Z,49.75
2023-04-15T06:35:43.354Z,50.67
2023-04-15T06:40:46.034Z,50.34
2023-04-15T06:45:48.139Z,50.33
2023-04-15T06:50:50.306Z,49.91
2023-04-15T06:55:52.308Z,50.07
2023-04-15T07:00:54.573Z,49.81
2023-04-15T07:05:56.877Z,49.56
2023-04-15T07:10:58.743Z,47.51
2023-04-15T07:16:00.857Z,47.51
2023-04-15T07:21:04.475Z,45.59
2023-04-15T07:26:06.497Z,46.89
2023-04-15T07:31:08.435Z,44.57
2023-04-15T07:36:11.047Z,46.45
2023-04-15T07:41:13.295Z,45.54
2023-04-15T07:46:15.577Z,45.00
2023-04-15T07:51:17.925Z,44.96
2023-04-15T07:56:20.533Z,44.62
2023-04-15T08:01:23.061Z,43.95
2023-04-15T08:06:25.488Z,43.76
2023-04-15T08:11:27.908Z,43.63
2023-04-15T08:16:30.207Z,43.02
2023-04-15T08:21:32.489Z,42.64
2023-04-15T08:26:34.655Z,42.89
2023-04-15T08:31:37.223Z,42.37
2023-04-15T08:36:40.903Z,42.06
2023-04-15T08:41:48.059Z,41.10
2023-04-15T08:46:51.835Z,41.58
2023-04-15T08:51:56.676Z,41.00
2023-04-15T08:57:02.688Z,40.66
2023-04-15T09:02:04.998Z,40.68
2023-04-15T09:07:07.517Z,40.39
2023-04-15T09:12:10.584Z,39.61
2023-04-15T09:17:13.027Z,39.38
2023-04-15T09:22:15.669Z,39.34
2023-04-15T09:27:21.223Z,37.61
2023-04-15T09:32:24.975Z,38.52
2023-04-15T09:37:37.038Z,37.31
2023-04-15T09:42:58.036Z,38.57
2023-04-15T09:48:22.826Z,38.50
2023-04-15T09:53:26.207Z,39.55
2023-04-15T09:58:33.390Z,39.79
2023-04-15T10:03:39.111Z,39.81
2023-04-15T10:08:41.968Z,40.33
2023-04-15T10:13:49.267Z,39.38
2023-04-15T10:18:58.621Z,39.29
2023-04-15T10:24:03.881Z,39.30
2023-04-15T10:29:06.601Z,39.31
2023-04-15T10:34:09.539Z,38.63
2023-04-15T10:39:34.998Z,38.24
2023-04-15T10:44:38.981Z,38.74
2023-04-15T10:49:51.099Z,37.98
2023-04-15T10:55:23.745Z,37.87
2023-04-15T11:00:27.053Z,38.64
2023-04-15T11:05:52.414Z,37.11
2023-04-15T11:10:54.657Z,38.01
2023-04-15T11:15:58.562Z,38.09
2023-04-15T11:21:06.105Z,36.99
2023-04-15T11:26:11.771Z,38.14
2023-04-15T11:31:16.539Z,37.79
2023-04-15T11:36:18.707Z,37.59
2023-04-15T11:41:22.672Z,38.00
2023-04-15T11:46:34.141Z,37.67
2023-04-15T11:51:36.538Z,37.37
2023-04-15T11:56:38.819Z,38.23
2023-04-15T12:01:43.739Z,40.27
2023-04-15T12:06:46.065Z,41.67
2023-04-15T12:11:55.390Z,43.36
2023-04-15T12:17:03.427Z,42.61
2023-04-15T12:22:22.529Z,42.46
2023-04-15T12:27:29.275Z,40.82
2023-04-15T12:32:36.036Z,40.52
2023-04-15T12:37:38.165Z,42.17
2023-04-15T12:42:40.624Z,43.19
2023-04-15T12:47:42.805Z,42.53
2023-04-15T12:52:45.233Z,42.96
2023-04-15T12:57:47.355Z,44.03
2023-04-15T13:02:49.696Z,45.08
2023-04-15T13:07:51.984Z,45.50
2023-04-15T13:12:54.324Z,44.93
2023-04-15T13:17:56.839Z,44.38
2023-04-15T13:23:03.319Z,46.56
2023-04-15T13:28:05.547Z,46.61
2023-04-15T13:33:07.700Z,45.16
2023-04-15T13:38:09.852Z,43.98
2023-04-15T13:43:12.557Z,43.82
2023-04-15T13:48:14.766Z,43.99
2023-04-15T13:53:16.950Z,42.62
2023-04-15T13:58:19.087Z,43.18
2023-04-15T14:03:21.337Z,42.48
2023-04-15T14:08:25.017Z,42.66
2023-04-15T14:13:27.218Z,43.02
2023-04-15T14:18:30.474Z,43.15
2023-04-15T14:23:32.676Z,42.96
2023-04-15T14:28:34.693Z,44.15
2023-04-15T14:35:13.657Z,46.13
2023-04-15T14:40:15.775Z,47.32
2023-04-15T14:45:19.913Z,51.13
2023-04-15T14:50:22.224Z,52.90
2023-04-15T14:55:24.271Z,55.38
2023-04-15T15:00:26.322Z,56.61
2023-04-15T15:05:28.877Z,58.96
2023-04-15T15:10:34.768Z,58.97
2023-04-15T15:15:51.012Z,59.75
2023-04-15T15:20:53.335Z,60.36
2023-04-15T15:25:55.470Z,61.05
2023-04-15T15:30:57.678Z,61.31
2023-04-15T15:39:39.181Z,61.95
2023-04-15T15:44:42.015Z,62.29
2023-04-15T15:49:44.609Z,63.41
2023-04-15T15:54:49.687Z,62.84
2023-04-15T16:00:04.772Z,62.58
2023-04-15T16:05:12.277Z,62.81
2023-04-15T16:10:15.309Z,62.66
2023-04-15T16:15:17.369Z,62.66
2023-04-15T16:20:22.274Z,63.03
2023-04-15T16:25:27.204Z,62.96
2023-04-15T16:30:33.687Z,62.63
2023-04-15T16:35:36.043Z,62.73
2023-04-15T16:40:38.537Z,62.91
2023-04-15T16:45:40.723Z,63.46
2023-04-15T16:50:43.305Z,63.79
2023-04-15T16:55:45.459Z,63.22
2023-04-15T17:00:47.759Z,63.34
2023-04-15T17:05:49.769Z,64.72
2023-04-15T17:10:51.945Z,62.90
2023-04-15T17:15:55.719Z,62.21
2023-04-15T17:20:59.314Z,61.40
2023-04-15T17:26:02.125Z,61.13
2023-04-15T17:31:04.915Z,60.56
2023-04-15T17:36:07.347Z,60.16
2023-04-15T17:41:10.397Z,60.83
2023-04-15T17:46:13.529Z,60.52
2023-04-15T17:51:16.057Z,60.83
2023-04-15T17:56:18.236Z,60.23
2023-04-15T18:01:22.409Z,60.60
2023-04-15T18:06:29.078Z,61.02
2023-04-15T18:11:38.310Z,60.87
2023-04-15T18:16:42.727Z,61.16
2023-04-15T18:21:46.283Z,61.63
2023-04-15T18:26:52.680Z,61.99
2023-04-15T18:31:54.859Z,61.63
2023-04-15T18:36:58.222Z,61.25
2023-04-15T18:42:00.422Z,61.44
2023-04-15T18:47:02.926Z,61.45
2023-04-15T18:52:05.367Z,62.13
2023-04-15T18:57:07.790Z,62.02
2023-04-15T19:02:09.958Z,62.17
2023-04-15T19:07:13.313Z,62.37
2023-04-15T19:12:20.460Z,62.31
2023-04-15T19:17:22.589Z,62.18
2023-04-15T19:22:25.029Z,62.35
2023-04-15T19:27:27.424Z,62.17
2023-04-15T19:32:29.724Z,62.01
2023-04-15T19:37:41.958Z,62.22
2023-04-15T19:42:44.219Z,62.27
2023-04-15T19:47:46.879Z,62.01
2023-04-15T19:52:49.917Z,62.00
2023-04-15T19:57:52.152Z,62.06
2023-04-15T20:02:56.788Z,62.34
2023-04-15T20:08:00.633Z,62.12
2023-04-15T20:13:02.918Z,62.04
2023-04-15T20:18:05.108Z,61.65
2023-04-15T20:23:11.194Z,61.29
2023-04-15T20:28:13.941Z,61.30
2023-04-15T20:33:16.655Z,60.90
2023-04-15T20:38:18.986Z,60.50
2023-04-15T20:43:21.923Z,60.32
2023-04-15T20:48:24.544Z,60.64
2023-04-15T20:53:26.926Z,60.67
2023-04-15T20:58:28.986Z,60.22
2023-04-15T21:03:31.319Z,60.64
2023-04-15T21:08:33.599Z,60.15
2023-04-15T21:13:35.464Z,60.83
2023-04-15T21:18:43.615Z,60.64
2023-04-15T21:23:45.988Z,60.33
2023-04-15T21:28:48.155Z,60.21
2023-04-15T21:33:50.231Z,60.04
2023-04-15T21:40:16.137Z,60.07
2023-04-15T21:45:18.850Z,60.29
2023-04-15T21:50:21.295Z,60.56
2023-04-15T21:55:23.549Z,60.18
2023-04-15T22:00:25.997Z,60.48
2023-04-15T22:05:28.307Z,59.87
2023-04-15T22:10:31.733Z,60.07
2023-04-15T22:15:35.835Z,59.80
2023-04-15T22:20:38.083Z,59.81
2023-04-15T22:25:40.572Z,60.22
2023-04-15T22:30:43.214Z,60.03
2023-04-15T22:35:45.501Z,60.39
2023-04-15T22:40:50.030Z,60.54
2023-04-15T22:45:56.842Z,60.71
2023-04-15T22:50:59.100Z,60.20
2023-04-15T22:56:01.046Z,61.11
2023-04-15T23:01:12.585Z,61.12
2023-04-15T23:06:15.436Z,60.43
2023-04-15T23:11:18.512Z,60.84
2023-04-15T23:16:21.051Z,60.66
2023-04-15T23:21:24.761Z,60.88
2023-04-15T23:26:28.392Z,60.81
2023-04-15T23:31:30.516Z,60.55
2023-04-15T23:36:33.075Z,60.71
2023-04-15T23:41:36.666Z,60.60
2023-04-15T23:46:38.835Z,60.42
2023-04-15T23:51:40.969Z,60.28
2023-04-15T23:56:42.949Z,59.97
